the time You need

Da Piazza a Piazza

PRATO, Prato   Italy

domenica 27 maggio 2018

Percorsi

LUNGO - 72.0 Km

 

CORTO - 50.0 Km

Servizi

ADSCOSTPunti KS Ranking

Chip

Circuiti

Coppa Toscana

Ente

FCI

Info

CLASSIFICA

LUNGO - 72.0 Km

Pos Atleta Sesso Cat PosC Team Tempo Media RTime
Sq. D´AGATA EMANUELE M OPEN - LISSONE MTB ASD 03:45:05.92 19,19 03:44:57.32
Sq. VITA MATTEO M M1 - LE SORELLE ASD 04:04:07.14 17,70 04:02:56.56
Sq. ZAMPETTI ANDREA M M1 - LISSONE MTB ASD 03:20:45.00 21,52 03:20:45.00
Sq. MAGGINI CHRISTIAN M M3 - CAVALLINO - SPECIALIZED 05:07:48.72 14,04 05:06:22.22
Sq. BRACCI YURI M M2 - GS POCCIANTI 04:02:57.15 17,78 04:01:47.05
1 PRUUS PEETER M OPEN 1 ASD TORPADO-SÜDTIROL INTERNATIONAL MTB PRO TEAM 02:52:59.39 24,97 02:52:51.51
2 CASAGRANDE FRANCESCO M OPEN 2 CICLI TADDEI 02:53:59.93 24,83 02:53:51.83
3 CHIARINI RICCARDO M OPEN 3 ASD TORPADO-SÜDTIROL INTERNATIONAL MTB PRO TEAM 02:54:00.03 24,83 02:53:54.54
4 TRONCONI MARTINO M OPEN 4 TEAM BIKE INNOVATION FOCUS ROSTI 02:54:08.67 24,81 02:54:02.37
5 VANNI TOMMASO M M1 1 CICLI TADDEI 03:06:33.84 23,16 03:06:14.54
6 CASELLA FRANCO M OPEN 5 NEW BIKE 2008 RACING TEAM 03:08:33.08 22,91 03:08:25.25
7 PANARIELLO GIUSEPPE M OPEN 6 NEW BIKE 2008 RACING TEAM 03:08:33.18 22,91 03:08:26.26
8 SPINETTI MATTEO M ELMT 1 CICLI TADDEI 03:08:34.10 22,91 03:08:14.00
9 GUIDI LORENZO M ELMT 2 TEAM SPACEBIKES 03:08:45.25 22,89 03:08:37.37
10 MONTANARI FABIO M M3 1 LISSONE MTB ASD 03:09:06.14 22,85 03:08:48.48
11 CRISI ROBERTO M OPEN 7 CANNONDALE RH RACING 03:10:28.43 22,68 03:10:19.43
12 LINETTI SIMONE M OPEN 8 NEW BIKE 2008 RACING TEAM 03:10:56.51 22,63 03:10:48.41
13 ZAMPARELLA MARCO M OPEN 9 INDIVIDUALE 03:12:24.17 22,45 03:12:17.07
14 MEDVEDEV ALEKSEI M OPEN 10 CICLI TADDEI 03:13:28.77 22,33 03:13:19.37
15 PANIZ LUCA M M3 2 TEAM SPACEBIKES 03:13:34.43 22,32 03:13:25.33
16 VALSECCHI MATTEO M ELMT 3 TEAM SPACEBIKES 03:14:00.17 22,27 03:13:50.50
17 GIANNI ALESSIO M M2 1 TUTTO BIKE TEAM KONA 03:14:02.63 22,26 03:13:53.03
18 MANTELLASSI DAVIDE M ELMT 4 ASD CICLISSIMO BIKE TEAM 03:14:23.01 22,22 03:14:03.03
19 MONTELATICI LUCA M M2 2 TEAM SCOTT PASQUINI STELLA AZZURRA 03:15:05.10 22,14 03:14:47.00
20 BARTALUCCI FEDERICO M ELMT 5 TEAM SCOTT PASQUINI STELLA AZZURRA 03:15:12.40 22,13 03:14:55.55
21 DEGASPERI IVAN M M2 3 TEAM GIULIANI CICLI ARCO 03:15:48.17 22,06 03:15:37.07
22 MAIUOLO ALESSANDRO M M2 4 LISSONE MTB ASD 03:16:45.25 21,96 03:16:27.27
23 ZAMPEDRI LUCA M M3 3 TEAM TODESCO 03:17:22.39 21,89 03:17:09.19
24 ROSELLI FRANCESCO M OPEN 11 NEW BIKE 2008 RACING TEAM 03:17:47.66 21,84 03:17:40.26
25 LANCIONI DANIELE M M3 4 TEAM PARKPREE 03:19:28.42 21,66 03:19:06.06
26 PEZZI FABRIZIO M M4 1 AVIS PRATOVECCHIO-ERREPI-LEE COUGAN 03:19:28.53 21,66 03:19:19.43
27 FAILLI FRANCESCO M OPEN 12 CICLI TADDEI 03:19:29.34 21,66 03:19:20.20
28 CALCAGNO FRANCESCO M M3 5 NEW BIKE 2008 RACING TEAM 03:19:37.92 21,64 03:19:28.82
29 ROSATI MARCO M ELMT 6 TEAM TODESCO 03:19:49.50 21,62 03:19:31.10
30 LONATI MATTEO M ELMT 7 MDL RACING CREW ASD 03:20:16.60 21,57 03:20:04.50
31 ZAMPEDRI ANDREA M M1 2 LISSONE MTB ASD 03:21:03.41 21,49 03:20:48.48
32 MONTANARI ROBERTO M M3 6 MDL RACING CREW ASD 03:21:58.17 21,39 03:21:44.17
33 BOVINO MARIO M M4 2 CYCLING PERFORMANCE 03:22:06.31 21,38 03:21:56.56
34 PERINI GILBERTO M M6 1 AVIS PRATOVECCHIO-ERREPI-LEE COUGAN 03:22:23.75 21,35 03:22:08.55
35 DINALE DAVIDE M M3 7 TEAM SPACEBIKES 03:22:43.02 21,31 03:22:31.31
36 FINAZZI MATTIA M ELMT 8 LISSONE MTB ASD 03:22:43.41 21,31 03:22:26.26
37 FABRIS LUCA M ELMT 9 TEAM TODESCO 03:22:43.42 21,31 03:22:32.32
38 MASSARO PESCINI GIANLUCA M M2 5 NEW BIKE 2008 RACING TEAM 03:22:48.29 21,30 03:22:00.19
39 MOROZZI NICOLA M M5 1 TUTTO BIKE TEAM KONA 03:24:31.53 21,12 03:24:17.53
40 VILLA MARCO M M2 6 WR COMPOSITI RACING 03:24:32.92 21,12 03:24:24.82
41 GOTTARDINI MASSIMO M M4 3 TEAM TODESCO 03:24:39.04 21,11 03:24:39.04
42 FERRERI MARCO M M4 4 TEAM SPACEBIKES 03:24:56.66 21,08 03:24:44.26
43 BERLUSCONI MASSIMO M M6 2 TEAM SPACEBIKES 03:25:36.66 21,01 03:25:24.26
44 MESSANO DANIELE M M4 5 TUTTO BIKE TEAM KONA 03:25:44.67 21,00 03:25:32.27
45 PRATI ETTORE M M4 6 MDL RACING CREW ASD 03:25:51.23 20,99 03:25:37.13
46 MANFRELLOTTI LUCA M ELMT 10 ASD CICLISSIMO BIKE TEAM 03:25:52.65 20,98 03:25:39.55
47 BIDINI SAMUELE M OPEN 13 CICLI TADDEI 03:26:19.83 20,94 03:25:51.23
48 CAMAGGI FABRIZIO M M5 2 ASD NOXON RACING TEAM 03:26:31.97 20,92 03:26:22.87
49 TEDESCHI DAMIANO M M1 3 TEAM K-ONE ASD 03:26:33.17 20,92 03:26:11.11
50 LEMMI GABRIELE M M4 7 ASD CICLISSIMO BIKE TEAM 03:26:51.47 20,88 03:26:40.40
51 SOSNA KATAZINA F DE 1 ASD TORPADO-SÜDTIROL INTERNATIONAL MTB PRO TEAM 03:27:22.42 20,83 03:27:16.32
52 LEONI FRANCESCO M M2 7 ASD STAR BIKE 03:27:48.75 20,79 03:27:14.45
53 PUCCIARELLI ENRICO M ELMT 11 MONTIGNOSO CICLISMO ASD 03:27:49.67 20,79 03:27:35.47
54 REGA GIACOMO M M1 4 ASD CICLISSIMO BIKE TEAM 03:28:42.26 20,70 03:28:32.32
55 MADASCHI MARCO M M2 8 WR COMPOSITI RACING 03:28:43.02 20,70 03:28:27.27
56 BIGI MARCO M M3 8 ASD B-TEAM 03:28:43.16 20,70 03:28:30.30
57 VIVI ANDREA M M3 9 TEAM SPACEBIKES 03:28:43.61 20,70 03:28:18.21
58 BALESTRIERI JONATHAN M M1 5 TEAM TODESCO 03:28:44.25 20,70 03:28:33.33
59 BRUNO MATTIA M M1 6 TEAM SPACEBIKES 03:28:47.67 20,69 03:28:17.27
60 CELLI LUCA M ELMT 12 ASD B-TEAM 03:28:50.10 20,69 03:28:38.38
61 MAGNANI ALBERTO M M3 10 TEAM SPACEBIKES 03:29:23.36 20,63 03:28:54.54
62 TAVERNA ELIA M M1 7 ASD BIKE AND FUN TEAM 03:29:55.61 20,58 03:29:13.51
63 SANTACROCE SALVATORE M M2 9 TUTTO BIKE TEAM KONA 03:30:52.59 20,49 03:30:20.49
64 FONTANA FRANCO M M4 8 CICLI BRANDI ELBA TEAM 03:31:22.00 20,44 03:30:30.30
65 DRACONE GIOVANNI M M2 10 TEAM SPACEBIKES 03:31:28.69 20,43 03:30:59.29
66 DEPAUL GABRIELE M M1 8 TEAM SPACEBIKES 03:31:33.15 20,42 03:31:25.25
67 NISI MARIA CRISTINA F DE 2 TEAM BIKE INNOVATION FOCUS ROSTI 03:31:47.41 20,40 03:31:40.40
68 PRETINI DANIELE M M2 11 CICLO TEAM SAN GINESE 03:31:55.24 20,39 03:31:37.14
69 SERENI ALESSANDRO M ELMT 13 CICLI TADDEI 03:31:56.90 20,38 03:31:32.60
70 FICORILLI MANUEL M OPEN 14 NEW BIKE 2008 RACING TEAM 03:31:57.91 20,38 03:31:50.41
71 GADDONI ELENA F DE 3 CICLI TADDEI 03:32:18.66 20,35 03:32:12.12
72 ACCO FRANCESCO M OPEN 15 ASD CICLISSIMO BIKE TEAM 03:33:14.35 20,26 03:32:48.48
73 SCOLASTICO ANDREA M OPEN 16 CICLI TADDEI 03:33:30.42 20,23 03:33:20.32
74 FORMELLI ALESSANDRO M M2 12 TEAM SCOTT PASQUINI STELLA AZZURRA 03:34:05.26 20,18 03:33:35.35
75 REDAELLI ROBERTO M M5 3 TEAM SPACEBIKES 03:34:31.67 20,14 03:34:14.67
76 GALLI GIULIO M OPEN 17 CICLI TADDEI 03:35:17.50 20,07 03:34:54.54
77 RODODENDRO FABIO M M3 11 CAPOLIVERI BIKE PARK MTB CLUB 03:35:17.67 20,07 03:34:54.27
78 TONELLO ALESSANDRO M M1 9 LISSONE MTB ASD 03:35:43.91 20,03 03:35:21.21
79 VARNERO RAMON M M2 13 VITTORIA-LEPONTIA RACING TEAM 03:35:55.91 20,01 03:35:21.01
80 RANFAGNI SIMONE M M5 4 ASD CICLISSIMO BIKE TEAM 03:36:57.04 19,91 03:36:38.38
81 ANTICHI GIACOMO M ELMT 14 ASD VELO CLUB LUNIGIANA 03:36:58.65 19,91 03:36:33.25
82 COPETA ADRIO M M5 5 MDL RACING CREW ASD 03:38:57.08 19,73 03:38:45.45
83 CAPEZZUOLI FILIPPO M M1 10 ASD MUGELLO TOSCANA BIKE 03:39:14.32 19,71 03:38:44.44
84 SECCI SIMONE M M5 6 ASD CICLISSIMO BIKE TEAM 03:39:18.16 19,70 03:38:39.39
85 ROMANELLI ALESSANDRO M M1 11 CICLI TADDEI 03:39:20.61 19,70 03:38:52.52
86 SEMPRINI STEFANO M M6 3 CYCLING PERFORMANCE 03:39:24.17 19,69 03:39:14.07
87 MIGNOLI FRANCESCO M ELMT 15 ASD BIKE & SPORT TEAM MTB 03:40:53.49 19,56 03:39:33.33
88 ZIMARRI NICOLA M M3 12 ASD BIKE AND FUN TEAM 03:41:10.32 19,53 03:40:36.36
89 PAGLI LUCIANO M M4 9 AVIS VERAG PRATO EST 03:41:11.95 19,53 03:40:43.55
90 GIULIANI MATTEO M M2 14 TEAM GIULIANI CICLI ARCO 03:41:35.27 19,50 03:41:21.21
91 BANI GIANLUCA M M4 10 TEAM FOCUS FANELLI BIKE 03:41:41.67 19,49 03:41:15.07
92 ZULLO ANDREA M M1 12 ASD FC GRACCIANO BICISQUADRON 03:41:57.50 19,46 03:40:24.40
93 LANDI CORRADO M M5 7 TEAM FOCUS FANELLI BIKE 03:42:13.40 19,44 03:41:54.30
94 GERINI MAURIZIO M M4 11 TEAM BIKESTAR RACING 03:43:32.89 19,33 03:43:08.29
95 DEL CORSO FRANCO M M5 8 CICLI TADDEI 03:44:03.31 19,28 03:43:36.36
96 FANUCCHI FABIO M M4 12 MONKEY RACING TEAM 03:44:04.33 19,28 03:42:28.23
97 MONACI GIANFRANCO M M4 13 TEAM BIKE PIONIERI 03:44:35.90 19,24 03:44:17.30
98 SCIPIONI SILVIA F W1 1 CICLI TADDEI 03:45:23.01 19,17 03:45:02.02
99 FANELLI IVAN M M3 13 TEAM FOCUS FANELLI BIKE 03:45:24.90 19,17 03:45:03.80
100 COCCHI LEANDRO M M2 15 TEAM CINGOLANI - SPECIALIZED 03:45:57.66 19,12 03:45:13.06
101 CORSETTI FRANCESCO M M2 16 AVIS PRATOVECCHIO-ERREPI-LEE COUGAN 03:46:18.91 19,09 03:45:59.31
102 OSS AGOSTINO M M7 1 GSA PENNE SPRINT 03:46:28.32 19,08 03:46:17.17
103 MELIS MAURIZIO M M3 14 CAPOLIVERI BIKE PARK MTB CLUB 03:46:37.74 19,06 03:46:15.04
104 FADINI FEDERICO M ELMT 16 ASD B-TEAM 03:47:12.65 19,01 03:46:58.55
105 ANTONIOLI MAURO M M5 9 CICLOBIKES NONSOLOFANGO 03:47:39.09 18,98 03:47:26.26
106 BIASIOLI ANDREA M M2 17 TEAM TODESCO 03:48:23.49 18,92 03:48:08.08
107 GIULIANI LUCA M M4 14 TEAM TODESCO 03:48:24.91 18,91 03:47:44.31
108 COLOMBI SELENE F W1 2 LISSONE MTB ASD 03:48:40.49 18,89 03:48:29.29
109 RIVOLTA CRISTIAN M M2 18 LISSONE MTB ASD 03:48:42.66 18,89 03:48:00.06
110 BOSSINI LEONARDO M M3 15 CS OLIMPIA POGGIO AL VENTO ASD 03:49:05.66 18,86 03:47:54.06
111 ZEBRO DANILO M M3 16 LISSONE MTB ASD 03:49:31.85 18,82 03:49:03.25
112 ULIVIERI MICHELE M M1 13 INFINITY CYCLING TEAM ASD 03:49:32.66 18,82 03:48:20.06
113 BARTOLOZZI MARCELLO M M7 2 CICLI TADDEI 03:49:43.61 18,81 03:49:29.29
114 GABELLI MIRCO M ELMT 17 TEAM TODESCO 03:50:06.40 18,77 03:49:47.10
115 CAPPONI ANDREA M M1 14 TEAM SPACEBIKES 03:51:10.41 18,69 03:50:24.01
116 NOCI STEFANO M M4 15 ASD FREE BIKE CASALGUIDI 03:51:20.55 18,67 03:50:40.40
117 LIETTI ALESSANDRO M M4 16 TEAM MTB BEE AND BIKE 03:51:35.15 18,65 03:51:19.19
118 PERUZZI ROBERTO M M4 17 ASD CICLISSIMO BIKE TEAM 03:51:41.40 18,65 03:50:38.38
119 MARIOTTINI MARCO M M3 17 CS OLIMPIA POGGIO AL VENTO ASD 03:51:41.41 18,65 03:50:28.28
120 PELO MASSIMILIANO M M5 10 TUTTO BIKE TEAM KONA 03:51:50.91 18,63 03:51:33.61
121 BELIGNI MARCO M ELMT 18 ASD DIE HARD TEAM 03:52:10.41 18,61 03:51:04.04
122 CAPPONI ROBERTO M M6 4 TEAM SPACEBIKES 03:52:11.41 18,61 03:51:18.41
123 FUCCELLI NICO M M3 18 CICLI TADDEI 03:52:16.12 18,60 03:52:06.06
124 PIATESI STEFANO M M5 11 BARACCA LUGO MTB 03:52:25.45 18,59 03:50:53.35
125 AVELLA SIMONE M M3 19 AVIS VERAG PRATO EST 03:52:47.41 18,56 03:52:31.31
126 GELLI ANDREA M M5 12 AVIS VERAG PRATO EST 03:52:49.58 18,56 03:52:32.28
127 MENGHETTI FABIO M M4 18 TEAM BIKE INNOVATION FOCUS ROSTI 03:53:17.57 18,52 03:52:50.47
128 BELNOME MARCO M M3 20 MONTALLESE ASD 03:53:25.15 18,51 03:52:57.15
129 TOSELLI CRISTIAN M M3 21 MDL RACING CREW ASD 03:53:35.15 18,49 03:53:01.01
130 GIULIANI MASSIMILIANO M M4 19 CICLI TADDEI 03:53:35.41 18,49 03:52:34.01
131 FERRI ALESSANDRO M M5 13 MTB CASENTINO ASD 03:53:37.64 18,49 03:53:07.54
132 PRUDENTE GIUSEPPE M M5 14 TEAM FOCUS FANELLI BIKE 03:54:14.35 18,44 03:53:51.25
133 RUFFINI ALESSIO M M3 22 TEAM SCOTT PASQUINI STELLA AZZURRA 03:54:49.40 18,40 03:54:13.13
134 VANNI ANDREA M M3 23 NEW BIKE 2008 RACING TEAM 03:56:15.16 18,29 03:55:44.44
135 BUZZETTI ANDREA M M5 15 ZEROZERO TEAM-CICLI PUCCIARELLI 03:56:25.36 18,27 03:55:36.36
136 PATRIAN MASSIMILIANO M M5 16 LISSONE MTB ASD 03:56:30.23 18,27 03:55:30.13
137 FONTANA LEONARDO M M5 17 ASD FREE BIKE CASALGUIDI 03:56:30.66 18,27 03:55:56.06
138 ROSI CLAUDIO M M4 20 NEW BIKE 2008 RACING TEAM 03:56:34.66 18,26 03:56:04.06
139 LUNARDINI ALICE F W1 3 CICLI TADDEI 03:56:45.64 18,25 03:56:30.04
140 BELTRAMINI MAURIZIO M M3 24 TEAM SPACEBIKES 03:56:51.32 18,24 03:56:25.22
141 PACISCOPI ROSA NICCOLÒ M ELMT 19 GS POCCIANTI 03:58:41.91 18,10 03:57:40.81
142 VANNUCCI GIAMPAOLO M M4 21 PALLADE COSTRUZIONI 03:58:57.40 18,08 03:57:54.54
143 PIANTINI ANGIOLINO M M6 5 MTB CASENTINO ASD 03:58:58.40 18,08 03:58:41.10
144 LIPPI CRISTIANA F W2 1 ASD CICLISSIMO BIKE TEAM 03:59:06.59 18,07 03:58:44.44
145 SANTORO FRANCESCO M M5 18 LISSONE MTB ASD 03:59:08.22 18,07 03:58:19.12
146 MANNINI GIANNI M M2 19 FACTORY TEAM BATTIFOLLE 03:59:15.92 18,06 03:58:36.72
147 BOLLO ANDREA M M3 25 TENAX ASD 03:59:20.74 18,05 03:58:51.14
148 CAZZANIGA ROBERTO M M5 19 LISSONE MTB ASD 04:00:07.02 17,99 03:59:20.20
149 ARRISCHI FRANCO M M7 3 GS PRIMO E PIZZA BIKE 04:00:10.47 17,99 03:59:56.37
150 LAMI ALESSIO M M1 15 ASD BY BIKE 04:00:29.73 17,96 04:00:08.23
151 FERRI ROBERTO M M5 20 TEAM MTB LOMAZZO 04:00:45.24 17,94 04:00:09.09
152 BICHI GUIDO M M7 4 CAVALLINO - SPECIALIZED 04:00:58.91 17,93 04:00:43.01
153 BETTARINI STEFANO M M3 26 LE SORELLE ASD 04:01:15.65 17,91 04:00:16.45
154 DELSANTE DAVIDE M M2 20 TEAM SPACEBIKES 04:01:28.34 17,89 04:00:22.22
155 SCALI ROBI M M3 27 BIKE PROJECT FOIANO 04:02:13.57 17,84 04:01:03.17
156 BRUNETTI GIOVANNI M M5 21 BARACCA LUGO MTB 04:02:50.07 17,79 04:01:20.20
157 BOSCAINI CRISTIANO M M3 28 ASD BIKE AND FUN TEAM 04:03:31.15 17,74 04:02:50.50
158 TONIUTTI RUGGERO M M6 6 ASD CICLISSIMO BIKE TEAM 04:03:45.90 17,72 04:02:48.30
159 LAPINI MIRKO M M1 16 ASD BY BIKE 04:04:09.15 17,69 04:02:54.54
160 RIZZO ANDREA M M5 22 BICI CAMOGLI GOLFO PARADISO 04:04:14.64 17,69 04:03:39.14
161 BRUSCHETTI SANDRO M M5 23 ASD BICI E SPORT 04:04:44.16 17,65 04:04:12.12
162 BAGNI MARCO M M5 24 ASD FREE BIKE CASALGUIDI 04:04:49.15 17,65 04:04:21.15
163 GIACOMINI ROBERTO M M4 22 ASD SBUBBIKERS 04:04:55.40 17,64 04:03:25.30
164 BUTINI MARCO M M6 7 TEAM BIKE PIONIERI 04:05:00.88 17,63 04:04:42.28
165 MAZZUCOTELLI SIMONA F DE 4 GS MASSI´ SUPERMERCATI 04:06:36.65 17,52 04:06:29.29
166 VIGANO´ RICCARDO M M5 25 GS MASSI´ SUPERMERCATI 04:06:37.40 17,52 04:06:02.02
167 GORI GIUSEPPE M M6 8 AVIS VERAG PRATO EST 04:07:12.09 17,48 04:07:00.00
168 DISCACCIATI MARCO M M5 26 TEAM MTB LOMAZZO 04:07:39.41 17,44 04:07:06.06
169 BELOTTI GIUSEPPE M M4 23 TEAM ZETA 04:07:49.61 17,43 04:06:47.01
170 DAL PINO NICOLO´ M ELMT 20 CINGHIALI DELLA VERSILIA ASD 04:08:08.66 17,41 04:07:23.23
171 CIOLLI MARCO M M5 27 AVIS PRATOVECCHIO-ERREPI-LEE COUGAN 04:08:12.32 17,41 04:07:40.40
172 PARDINI MASSIMILIANO M M1 17 POLISPORTIVA SANGIULIANESE 04:08:48.62 17,36 04:07:55.52
173 MORMILE DAVIDE M M2 21 ASD DIEMME CICLI 04:08:55.89 17,36 04:08:01.09
174 CORSI ALESSANDRO M M4 24 TEAM SCOTT PASQUINI STELLA AZZURRA 04:08:58.15 17,35 04:08:27.27
175 BOCCINO ANDREA M M4 25 ASD DIDA 1980 04:09:18.40 17,33 04:08:25.25
176 GRANAI GIANLUCA M ELMT 21 ASD FC GRACCIANO BICISQUADRON 04:10:42.14 17,23 04:09:45.14
177 BIANCHI MARIO M M7 5 TEAM COMO BIKE 04:11:44.05 17,16 04:11:20.05
178 PENNONE STEFANO M M5 28 ASD MTBIKE ARGENTARIO 04:11:46.23 17,16 04:11:09.09
179 CONTICINI STEFANO M M4 26 TUTTO BIKE TEAM KONA 04:12:12.64 17,13 04:11:39.39
180 LONATI DAVIDE M M5 29 MDL RACING CREW ASD 04:12:21.56 17,12 04:12:06.06
181 NAVARRA LEONARDO M M1 18 CICLI TADDEI 04:12:39.14 17,10 04:12:04.04
182 MONTI CARLO M M3 29 ASD MTB MONTECATINI 04:14:24.87 16,98 04:13:58.77
183 RABUAZZO ANASTASIO M M2 22 ASD BIKE AND FUN TEAM 04:14:45.15 16,96 04:14:03.03
184 ROSSETTI LORENZO M ELMT 22 NEW BIKE 2008 RACING TEAM 04:15:19.83 16,92 04:14:45.73
185 CASONATO CHRISTIAN M M4 27 ASD DIE HARD TEAM 04:15:51.40 16,88 04:14:20.40
186 ZAMBONI PATRIZIO M M5 30 TEAM SPACEBIKES 04:15:52.48 16,88 04:15:13.38
187 TATINI GABRIELE M M7 6 ASD CICLISSIMO BIKE TEAM 04:16:16.61 16,86 04:15:19.61
188 CHAUSSADIS SUSANNA F W2 2 TEAM BIKE PIONIERI 04:16:58.48 16,81 04:16:37.38
189 LIVI GIACOMO M M2 23 BICI TEAM FRANCY 04:17:00.15 16,81 04:15:46.05
190 VANNONI ROBERTO M M5 31 GS POCCIANTI 04:17:10.15 16,80 04:15:45.45
191 MAZZIERLI ROBERTO M M5 32 MTB RACE SUBBIANO 04:17:32.28 16,77 04:16:44.44
192 MAZZOLI MAURO M M4 28 TEAM LENZI BIKE ASD 04:17:59.63 16,75 04:16:31.03
193 FUSCO FRANCO M M6 9 PEDALE BIANCAZZURRO 04:18:31.27 16,71 04:17:09.09
194 SANTI VALERIO M M1 19 ASD DIEMME CICLI 04:18:47.90 16,69 04:17:55.00
195 CASELLI ANDREA M M5 33 MTB CASENTINO ASD 04:19:11.64 16,67 04:18:44.24
196 CITTADINI DANIELE M M4 29 POLISPORTIVA SANGIULIANESE 04:20:39.64 16,57 04:19:50.04
197 CRINI MICHELE M M4 30 POLISPORTIVA TRO.CE.DO. 04:21:12.31 16,54 04:20:40.40
198 STAFA ELTON M M2 24 TEAM GIULIANI CICLI ARCO 04:21:14.73 16,54 04:20:10.43
199 GIOVANNELLI IACOPO M M1 20 TUTTO BIKE TEAM KONA 04:21:15.90 16,54 04:20:29.50
200 FAROLFI MAURO M M5 34 ASD NOXON RACING TEAM 04:21:35.89 16,51 04:21:16.59
201 DI NOTO LORENZO M ELMT 23 SOUDAL LEECOUGAN MTB RACING TEAM 04:21:42.90 16,51 04:21:18.60
202 ROSSI MATTEO M M3 30 ASD MTB CLUB CECINA 04:22:42.76 16,44 04:21:37.46
203 PAOLINO LEONARDO M M5 35 TEAM RIDICULOUS 04:22:45.60 16,44 04:21:53.53
204 ANNUNZIATA FRANCESCO M ELMT 24 SC ELBA OVEST 04:22:55.53 16,43 04:21:54.43
205 CHIRCU IONEL M M4 31 AVIS VERAG PRATO EST 04:23:21.09 16,40 04:22:56.56
206 CANEVELLO VITTORIO M M7 7 BICI CAMOGLI GOLFO PARADISO 04:23:48.89 16,38 04:23:07.09
207 PERULLO DANIELE M M5 36 LIVORNO BIKE ASD 04:23:51.90 16,37 04:23:25.70
208 CHELI GIAMPIERO M M6 10 AVIS PRATOVECCHIO-ERREPI-LEE COUGAN 04:23:58.00 16,37 04:23:23.23
209 RANDAZZO ROBERTO M M4 32 SANSONI TEAM 04:24:02.05 16,36 04:22:30.30
210 LUGARINI STEFANO M M4 33 TEAM BIKE PIONIERI 04:24:24.77 16,34 04:23:57.57
211 RONDINELLI MASSIMO M M3 31 TEAM COMO BIKE 04:24:31.97 16,33 04:23:52.87
212 RAMPINO GIANNI M M3 32 TEAM MTB LOMAZZO 04:25:25.68 16,28 04:24:41.41
213 MENCARONI ALESSANDRO M M5 37 ASD TEAM CYCLING RH+ 04:25:56.11 16,24 04:24:58.58
214 MASONI CARLO M M6 11 CICLI TADDEI 04:25:58.23 16,24 04:25:26.26
215 TREDICI ALESSANDRO M M4 34 MAURIZIO SIGNORI - CLETORIDE BIKE TEAM ASD 04:26:04.14 16,24 04:24:24.24
216 PIETRELLI GIANNI M M5 38 TUTTO BIKE TEAM KONA 04:26:32.14 16,21 04:26:02.02
217 MARCHI GIORGIO M M3 33 TORRETTA BIKE 04:26:59.39 16,18 04:26:06.29
218 MATTEOLI MICHELE M M6 12 ASD DIEMME CICLI 04:27:00.89 16,18 04:26:04.49
219 GUARNIERI FABIO M M5 39 MAURIZIO SIGNORI - CLETORIDE BIKE TEAM ASD 04:27:12.48 16,17 04:25:31.31
220 COLOSIO MASSIMO M M3 34 MDL RACING CREW ASD 04:27:33.73 16,15 04:26:57.57
221 SPANIO ROBERTO M M4 35 AVIS VERAG PRATO EST 04:27:52.21 16,13 04:27:27.27
222 MANGIARINI OLIVIERO M M5 40 GRUPPO NULLI ISEO MTB ASD 04:27:56.64 16,12 04:26:53.53
223 GIORGI MARCELLO M M7 8 CICLI TADDEI 04:28:24.88 16,10 04:28:02.48
224 CARRIROLO ROBERTO M M3 35 GEMINI TEAM ASD 04:28:25.72 16,09 04:26:57.32
225 NESI RICCARDO M ELMT 25 VAIANO TEAM FONDRIEST 04:28:29.34 16,09 04:27:15.15
226 VASSANELLI DIEGO M M6 13 TEAM TODESCO 04:28:32.18 16,09 04:28:13.13
227 RAGAZZINI SABATINO M M6 14 MTB CASENTINO ASD 04:28:49.14 16,07 04:27:41.41
228 BARBAGELATA STEFANO M M6 15 BICI CAMOGLI GOLFO PARADISO 04:29:33.63 16,03 04:28:53.53
229 ISOLA LUIGI M M2 25 MONKEY RACING TEAM 04:31:59.85 15,88 04:31:01.01
230 RATTI MATTEO M M3 36 LISSONE MTB ASD 04:33:19.13 15,81 04:32:41.41
231 MORI GIANCARLO M M1 21 POL. TAVARNELLE 04:33:41.05 15,78 04:32:24.24
232 GIANNI FRANCO M M7 9 POL. TAVARNELLE 04:33:41.64 15,78 04:32:25.54
233 BULLI ALESSIO M M1 22 ASD FC GRACCIANO BICISQUADRON 04:33:57.27 15,77 04:32:24.24
234 AMBROSETTI MARCO M M5 41 AVIS VERAG PRATO EST 04:34:01.33 15,77 04:33:04.33
235 KOT KRZYSZTOF M M4 36 ASD TEAM BICISPORT CARRARA 04:34:02.14 15,76 04:32:33.04
236 MORINI ALESSANDRO M M3 37 CROCE ROSSA ITALIANA LUCCA 04:34:32.14 15,74 04:33:06.04
237 MASSONI ANDREA M M2 26 ASD DIEMME CICLI 04:34:32.64 15,74 04:33:34.34
238 CIOLLI ANDREA M M6 16 TEAM LENZI BIKE ASD 04:34:32.96 15,74 04:33:00.36
239 BOARETTO GIANLUCA M ELMT 26 TEAM TODESCO 04:34:41.64 15,73 04:34:25.04
240 ONGARI SIMONA F W1 4 TEAM TODESCO 04:34:42.39 15,73 04:34:23.23
241 ROSSETTI MORENO M M6 17 ASD ITALIAN ARMY CYCLING TEAM 04:35:18.89 15,69 04:34:42.19
242 MORENA ANGELO M M6 18 NEW BIKE 2008 RACING TEAM 04:35:39.89 15,67 04:35:07.39
243 LIMONI FRANCO M M7 10 STEELSBIKES 04:37:19.14 15,58 04:35:59.04
244 NADALIN ALESSANDRO M M3 38 ASD TEAM MARVILLE 04:38:18.68 15,52 04:38:01.58
245 PONSARD LUCA M M4 37 ASD MTB CLUB CECINA 04:38:39.88 15,50 04:37:33.28
246 DEL VECCIA MASSIMO M M6 19 NEW BIKE 2008 RACING TEAM 04:39:53.64 15,44 04:38:38.38
247 GARDONI WALTER M M3 39 GRUPPO NULLI ISEO MTB ASD 04:39:58.05 15,43 04:38:57.57
248 PEZZELLA UMBERTO M M4 38 EVENTSPORT - SAN GALGANO RUNNERS 04:40:37.38 15,39 04:39:12.12
249 VENDRAMEL GIOVANNI M M4 39 GEMINI TEAM ASD 04:40:45.31 15,39 04:39:40.01
250 FUSINI LUCA M M4 40 ASD CICLISSIMO BIKE TEAM 04:42:23.05 15,30 04:41:28.28
251 BRESCHI ALESSANDRO M M5 42 ASD TEAM CYCLING RH+ 04:42:32.99 15,29 04:41:34.39
252 MENCARELLI LUCA M M4 41 MONTALLESE ASD 04:43:13.35 15,25 04:42:04.04
253 BARTOLINI STEFANO M M5 43 GS POCCIANTI 04:43:53.10 15,22 04:42:25.25
254 CIRMENA GIUSEPPE M M4 42 AVIS VERAG PRATO EST 04:44:34.97 15,18 04:44:11.87
255 CARNEVALI MAURO M M6 20 CICLISMO TERONTOLA 04:46:42.12 15,07 04:46:09.09
256 PERUZZI RICCARDO M M6 21 ASD CICLISSIMO BIKE TEAM 04:46:44.12 15,07 04:45:40.40
257 CLERICI CARLO M M5 44 TEAM MTB LOMAZZO 04:46:45.07 15,07 04:46:08.08
258 BRUNI RICO M M2 27 TEAM BIKE PIONIERI 04:48:24.85 14,98 04:47:45.75
259 COZZA RAFFAELE M M6 22 CICLISTICA VIACCIA 04:48:30.62 14,97 04:46:49.49
260 ZANONI MAURO M M4 43 TEAM TODESCO 04:48:49.59 14,96 04:47:52.52
261 BARILANI GIANLUCA M M5 45 TEAM TODESCO 04:49:36.21 14,92 04:49:14.14
262 LILLI SALVATORE M M7 11 UISP PRATO 04:50:07.95 14,89 04:48:42.55
263 BERTOLI ELIA M M1 23 FRM FACTORY RACING TEAM ASD 04:50:09.29 14,89 04:48:39.39
264 ROCCHI LUCA M M4 44 CICLI TADDEI 04:50:15.45 14,88 04:48:48.05
265 MEONI ANDREA M M5 46 ASD CICLOSPORT POGGIBONSI 04:52:58.38 14,75 04:51:42.08
266 BURASCHI LUCA M M2 28 RAMPI CLUB BRIANZA 04:53:27.38 14,72 04:51:56.38
267 MAFFI MARCO M M5 47 LISSONE MTB ASD 04:53:49.88 14,70 04:52:54.88
268 COSTA DARIO M M3 40 GEMINI TEAM ASD 04:53:58.04 14,70 04:52:31.31
269 LAZZARO GIORGIO M M4 45 GEMINI TEAM ASD 04:54:14.62 14,68 04:53:12.62
270 LENZI ALBERTO M M4 46 PROBIKE FIRENZE ASD 04:55:25.63 14,62 04:54:20.20
271 MONACI ANDREA M M4 47 CICLISTICA VALDARBIA 04:55:48.58 14,60 04:54:48.48
272 CURADINI BRUNO M M2 29 SC VILLAFRANCA 04:56:04.80 14,59 04:54:27.20
273 CAVANA ANDREA M M3 41 SC VILLAFRANCA 04:56:04.81 14,59 04:54:28.31
274 GORLA EROS M M2 30 TEAM MTB BEE AND BIKE 04:57:13.88 14,53 04:56:55.28
275 FALLI ROBERTO M M4 48 GS VICCHIO BIKE 04:58:37.51 14,47 04:57:51.11
276 SAURINO ENRICO M M3 42 SC GASTONE NENCINI 04:59:24.56 14,43 04:57:50.50
277 DESIDERI LUCA M M5 48 IL FABBRINO ASD 04:59:24.70 14,43 04:58:12.12
278 MARI LEONARDO M M7 12 ASSOCIAZIONE FERRI TAGLIENTI 04:59:43.37 14,41 04:58:07.07
279 ZUNNUI NICOLA M M5 49 LISSONE MTB ASD 05:00:07.35 14,39 04:58:32.32
280 TAVANTI ANDREA M M4 49 CAVALLINO - SPECIALIZED 05:00:49.53 14,36 05:00:28.28
281 PICASSO MARINO M M6 23 BICI CAMOGLI GOLFO PARADISO 05:02:43.71 14,27 05:01:55.61
282 BERGAMINI UGO M M3 43 ASD DIEMME CICLI 05:03:41.10 14,23 05:02:42.00
283 ARRICIATI ALESSANDRO M M4 50 GEMINI TEAM ASD 05:03:47.61 14,22 05:03:01.21
284 CHESI ALBERTO M M1 24 ASD MTB CLUB CECINA 05:04:17.99 14,20 05:03:20.59
285 MELANI ALBERTO M M6 24 MANILA BIKE TEAM PROFESSIONAL 05:06:57.94 14,07 05:05:37.04
286 TOCCAFONDI MASSIMO M M3 44 IL FABBRINO ASD 05:08:34.12 14,00 05:07:16.16
287 CORTI PARIDE M M5 50 POL. TAVARNELLE 05:08:39.70 14,00 05:07:17.17
288 ATTANASIO ANIELLO M M4 51 TUTTO BIKE TEAM KONA 05:08:40.06 14,00 05:08:05.05
289 DI COSMO GIUSEPPE M M2 31 LISSONE MTB ASD 05:08:42.26 13,99 05:08:00.00
290 TANTURLI MAURO M M7 13 ASD CICLISSIMO BIKE TEAM 05:09:17.11 13,97 05:08:07.07
291 FIASCHI TOMMASO M M3 45 AVIS VERAG PRATO EST 05:09:51.87 13,94 05:08:35.35
292 SARRI EMILIANO M M4 52 NEW BIKE 2008 RACING TEAM 05:10:02.12 13,93 05:08:44.44
293 SARTI GABRIELE M M4 53 NEW BIKE 2008 RACING TEAM 05:10:02.37 13,93 05:08:45.45
294 CECCHI ANDREA M M5 51 TUTTO BIKE TEAM KONA 05:10:29.12 13,91 05:08:55.02
295 MATTEI SAMUELE M M2 32 SC VILLAFRANCA 05:13:01.11 13,80 05:11:24.24
296 MESCHINO GIUSEPPE M M2 33 ASD VERTICAL TRACK MTB VIGNATE 05:13:44.23 13,77 05:12:33.13
297 FRANCI CLAUDIO M M5 52 AVIS PRATOVECCHIO-ERREPI-LEE COUGAN 05:14:31.28 13,74 05:13:24.24
298 BONECCHI RICCARDO M M3 46 GEMINI TEAM ASD 05:14:33.51 13,73 05:13:31.41
299 FEDELONI GIORGIO M M7 14 TEAM NENCINI PRATO 05:16:32.12 13,65 05:15:29.29
300 FOGLINO MARCO M M6 25 LISSONE MTB ASD 05:16:51.45 13,63 05:16:18.05
301 BOTTAINI LUCA M M4 54 MAURIZIO SIGNORI - CLETORIDE BIKE TEAM ASD 05:21:37.11 13,43 05:19:53.01
302 TURCHI ALBERTO M M7 15 ASD CICLISSIMO BIKE TEAM 05:22:08.36 13,41 05:20:59.59
303 SEPULCRI MAURO M M5 53 GEMINI TEAM ASD 05:23:22.43 13,36 05:22:20.20
304 BOCCONI LORENZO M M4 55 GS POCCIANTI 05:24:31.99 13,31 05:22:57.69
305 COLZI DANIELE M M7 16 GS POCCIANTI 05:24:32.19 13,31 05:22:54.54
306 CASTELLI MASSIMILIANO M M3 47 CRAL ENTI LOCALI SIENA 05:27:18.71 13,20 05:25:48.61
307 DEL MINISTRO CHIARA F W2 3 MAURIZIO SIGNORI - CLETORIDE BIKE TEAM ASD 05:27:51.86 13,18 05:26:09.06
308 PELLEGRINI MARCO M M5 54 MAURIZIO SIGNORI - CLETORIDE BIKE TEAM ASD 05:27:52.86 13,18 05:26:08.66
309 VILLANI FRANCESCO M CT 1 GOLDEN CLUB SDD ARL 05:28:34.74 13,15 05:27:04.64
310 BUCCIARELLI TIZIANO M M7 17 POL. TAVARNELLE 05:29:57.36 13,09 05:28:36.36
311 SACCHINI STEFANO M M6 26 ASD MTB CLUB CECINA 05:30:23.04 13,08 05:29:58.58
312 VALARANI GRAZIANO M M4 56 GEMINI TEAM ASD 05:31:34.94 13,03 05:30:26.04
313 MEONI LUCA M M6 27 ASD CICLOSPORT POGGIBONSI 05:34:09.57 12,93 05:32:43.47
314 MARCONI PAOLA F W2 4 TEAM LA VERDE ASD 05:36:15.85 12,85 05:34:54.45
315 REGOLI ANDREA M M5 55 TEAM BIKE PIONIERI 05:38:37.93 12,76 05:37:26.83
316 PIERACCIOLI NICCOLO M M1 25 AVIS VERAG PRATO EST 05:43:18.86 12,58 05:41:38.46
317 PALUMBO MARCO M M3 48 GEMINI TEAM ASD 05:46:43.58 12,46 05:45:11.11
318 MANGIAROTTI LEONARDO M M3 49 TUTTINBICI CALENZANO 05:52:27.93 12,26 05:50:55.83
319 GORI LEONARDO M M2 34 TUTTINBICI CALENZANO 05:52:29.43 12,26 05:50:58.03
320 MARINI ALESSANDRO M M5 56 TUTTINBICI CALENZANO 05:52:29.57 12,26 05:50:58.58
321 BIATTA SERGIO M M6 28 GEMINI TEAM ASD 05:57:51.10 12,07 05:57:01.01
322 GIOTTI EMILIANO M M3 50 ACD BICISPORTEAM FIRENZE 06:05:14.10 11,83 06:03:49.49
323 GIORGI MASSIMILIANO M M4 57 POLISPORTIVA SANGIULIANESE 06:12:42.58 11,59 06:11:42.42
324 LONGO SAMUELE M M3 51 GEMINI TEAM ASD 06:14:27.59 11,54 06:13:14.14
325 SESOLDI SANDRO M M4 58 CICLI TADDEI 06:21:04.25 11,34 06:19:55.55
326 NUTI STEFANO M M4 59 UISP PRATO 06:22:44.59 11,29 06:21:12.49
327 CARNEVALI SIMONE M M5 57 ASD BIZIO´S TEAM 06:31:47.02 11,03 06:30:11.11
DNF ARDITO GIUSEPPE SALVATORE M M4 - ASD ENERGIA PROPOSTE DI BENESSERE - - -
DNF BALUCANI MICHELE M CT - TEAM GRANFONDO FIRENZE B-KING - - -
DNF BELLOCCI FEDERICO M M4 - ASD DYNAMO CYCLING TEAM - - -
DNF CORSETTI NICOLA M M2 - AVIS PRATOVECCHIO-ERREPI-LEE COUGAN - - -
DNF FAVILLI ELIA M OPEN - TEAM BIKE INNOVATION FOCUS ROSTI - - -
DNF FERZOLA GIOELE M ELMT - SVALVOLATI IN MTB - - -
DNF MARETTI MIRKO M M2 - CSI PRATO - - -
DNF MESSERI LORENZO M ELMT - PROBIKE FIRENZE ASD - - -
DNF MOGAVERO DAVIDE M M1 - MTB VALDICHIANA - - -
DNF PAPINI GIOVANNI M M2 - ASD FREE BIKE CASALGUIDI - - -
DNF PINK MATTEO M ELMT - FACTORY TEAM BATTIFOLLE - - -
DNF RENZONI FRANCESCO M M3 - DONKEY BIKE CLUB SINALUNGA - - -
DNF SEMOLI ALESSIO M M4 - TEAM SCOTT PASQUINI STELLA AZZURRA - - -
DNF BELLUCCI MARIO M OPEN - NEW BIKE 2008 RACING TEAM - - -

CORTO - 50.0 Km

Pos Atleta Sesso Cat PosC Team Tempo Media RTime
Sq. IMPEMBA ROBERTO M M3 - GS VICCHIO BIKE 03:44:49.35 13,34 03:44:10.10
Sq. CONTELLA ANTONIO M M6 - ASD CICLISSIMO BIKE TEAM 03:48:59.54 13,10 03:47:34.34
Sq. GUARDUCCI ENRICO M M4 - GS PRIMO E PIZZA BIKE 03:10:18.93 15,76 03:09:00.53
Sq. PEDRONI ALESSANDRO M M7 - ADSCOST 00:37:13.09 80,61 00:35:11.11
Sq. PIACENTINI MATTEO M OPEN - NEW BIKE 2008 RACING TEAM 02:40:00.03 18,75 02:39:51.51
DNF SANTINI MAURO M M5 - PROBIKE FIRENZE ASD 02:43:42.50 18,33 02:42:39.39
Sq. MANFREDINI SIMONE M M2 - ASD DIEMME CICLI 04:12:45.14 11,87 04:11:48.48
Sq. MENGHETTI PETER M ELMT - TEAM BIKE INNOVATION FOCUS ROSTI 02:53:07.83 17,33 02:52:43.23
Sq. BETTAZZI MARCO M M3 - A RUOTA LIBERA 03:07:32.88 16,00 03:06:23.08
1 D´ORIA ANDREA M M1 1 ASD CICLISSIMO BIKE TEAM 02:14:17.44 22,34 02:14:08.08
2 PAPERINI PATRIZIO M M2 1 TEAM SCOTT PASQUINI STELLA AZZURRA 02:18:19.69 21,69 02:18:01.59
3 BERTELLI LUCA M ELMT 1 AVIS PRATOVECCHIO-ERREPI-LEE COUGAN 02:21:12.69 21,25 02:21:02.02
4 PULINA DAVIDE M M3 1 ASD STAR BIKE 02:21:29.88 21,20 02:21:06.78
5 TASSINI SIMONE M M1 2 TEAM SCOTT PASQUINI STELLA AZZURRA 02:21:51.38 21,15 02:21:41.28
6 CORTELLESSA MARCO M M2 2 ASD CICLISSIMO BIKE TEAM 02:23:22.44 20,93 02:23:03.14
7 ZOCCOLANTI MATTIA M ELMT 2 BIKELAND TEAM BIKE 2003 02:24:07.97 20,82 02:23:42.47
8 ROSSI GIORGIO M M2 3 ASD B-TEAM 02:25:36.89 20,60 02:25:24.79
9 ZULIAN IVAN M M1 3 TEAM SPACEBIKES 02:26:04.94 20,54 02:25:56.04
10 AGOSTINI ANDREA M M2 4 ASD B-TEAM 02:26:52.02 20,43 02:26:40.40
11 CEROFOLINI FABIO M M3 2 ASD GS POPPI 02:26:53.35 20,42 02:26:43.43
12 BORGOGNO ANDREA M M2 5 TEAM TODESCO 02:27:34.44 20,33 02:27:24.04
13 NOCENTI SAURO M M4 1 TEAM SCOTT PASQUINI STELLA AZZURRA 02:27:34.94 20,33 02:27:23.54
14 PAPAVERI RENATO M M5 1 TEAM SCOTT PASQUINI STELLA AZZURRA 02:28:17.33 20,23 02:28:08.08
15 RONZONI SAMUELE M M1 4 ASD BICIPEDIA 02:28:58.93 20,14 02:28:42.33
16 ROMAGNOLI TOMMASO M M4 2 CICLI TADDEI 02:30:45.00 19,90 02:30:34.34
17 POLLINI CLAUDIO M M1 5 ASD CICLISSIMO BIKE TEAM 02:30:52.53 19,89 02:30:08.08
18 ROSSI DANIELE M M1 6 ASD B-TEAM 02:31:24.43 19,82 02:31:13.13
19 PELLEGRINI EMILIANO M M4 3 ASD STAR BIKE 02:31:54.27 19,75 02:31:31.31
20 BARTOLINI SAURO M M4 4 STEELSBIKES 02:33:06.92 19,60 02:32:48.82
21 POGGIALI RICCARDO M M3 3 ASD CICLISSIMO BIKE TEAM 02:33:08.27 19,59 02:32:49.49
22 SIMI ALESSANDRO M M2 6 CICLO TEAM SAN GINESE 02:33:17.50 19,57 02:32:26.40
23 KOGLER LUCA M M4 5 ASD SORRISO BIKE TEAM 02:33:18.28 19,57 02:33:08.08
24 BATTISTINI ANDREA M M5 2 CICLI TADDEI 02:33:31.26 19,54 02:33:15.15
25 GRELLA SAMUELE M M1 7 TUTTO BIKE TEAM KONA 02:34:35.94 19,41 02:34:06.54
26 CECCOLINI ALESSANDRO M M1 8 AVIS PRATOVECCHIO-ERREPI-LEE COUGAN 02:34:39.40 19,40 02:34:20.20
27 CECCARELLI HENRI M M4 6 TEAM BIKESTAR RACING 02:34:43.44 19,39 02:34:20.20
28 VALLERI VALTER M M6 1 NEW BIKE 2008 RACING TEAM 02:35:11.85 19,33 02:35:11.85
29 DOLFI MATTEO M M3 4 CYKELN TEAM ASD 02:35:23.81 19,31 02:34:46.46
30 BERTI MICHELE M M4 7 DONKEY BIKE CLUB SINALUNGA 02:36:33.17 19,16 02:36:20.20
31 BELLESI NICCOLÒ M JUN 1 LE SORELLE ASD 02:36:43.92 19,14 02:36:37.02
32 MAZZEI SAMUELE M M3 5 IL FABBRINO ASD 02:37:36.65 19,04 02:37:20.55
33 BRANDINI ALESSIO M M5 3 DONKEY BIKE CLUB SINALUNGA 02:38:03.18 18,98 02:37:49.49
34 MASONI EMANUELE M M3 6 ASD DIEMME CICLI 02:38:50.67 18,89 02:38:03.57
35 PIERI MANUEL CARLO ANTONIO M M3 7 TEAM SCOTT PASQUINI STELLA AZZURRA 02:39:03.65 18,86 02:38:24.05
36 BENETTI GABRIELE M JUN 2 CICLI TADDEI 02:39:09.13 18,85 02:38:49.03
37 COSENZA ANGELO M M3 8 TEAM SCOTT PASQUINI STELLA AZZURRA 02:39:13.28 18,84 02:38:42.42
38 MARIANI NIKO M ELMT 3 TEAM SCOTT PASQUINI STELLA AZZURRA 02:39:24.02 18,82 02:38:49.49
39 NANNETTI VALENTINO M M1 9 A.S.D. MAGE BIKE TEAM 02:39:28.44 18,81 02:38:09.04
40 NANNI IACOPO M JUN 3 ASD CICLISSIMO BIKE TEAM 02:39:33.43 18,80 02:39:06.06
41 VARNI NICCOLO´ M JUN 4 SC VILLAFRANCA 02:39:41.03 18,79 02:39:33.33
42 DIVIGGIANO FRANCESCO M ELMT 4 TEAM SPACEBIKES 02:40:24.57 18,70 02:39:56.56
43 CARDINALI FRANCESCO M M1 10 FACTORY TEAM BATTIFOLLE 02:40:44.64 18,66 02:40:23.34
44 SOTTILI ALESSIO M ELMT 5 ASD CICLISSIMO BIKE TEAM 02:41:12.63 18,61 02:40:31.31
45 GUARNERI GIUSEPPE M M4 8 ZEROZERO TEAM-CICLI PUCCIARELLI 02:41:43.66 18,55 02:41:35.26
46 ROMANO MASSIMO M M4 9 AVIS VERAG PRATO EST 02:42:02.32 18,51 02:41:44.44
47 PRIMAVERI GIANFRANCO M M6 2 TEAM SCOTT PASQUINI STELLA AZZURRA 02:43:15.33 18,38 02:43:01.01
48 LOMARINI RICCARDO M M1 11 #SOLOSALITA - SQUADRA CORSE 02:43:33.76 18,34 02:42:47.76
49 MIGLIORINI STEFANO M M4 10 CICLI TADDEI 02:43:53.44 18,31 02:43:10.10
50 ROSATI DANIELE M M1 12 FACTORY TEAM BATTIFOLLE 02:43:58.93 18,30 02:43:14.33
51 CORSI ANDREA M M3 9 FACTORY TEAM BATTIFOLLE 02:43:59.02 18,29 02:43:19.02
52 NIERI ALESSIO M JUN 5 CICLI TADDEI 02:44:00.97 18,29 02:43:34.07
53 FERRI LORENZO M M2 7 ASD DYNAMO CYCLING TEAM 02:46:34.27 18,01 02:45:48.17
54 CELESTI ALESSANDRO M M1 13 NEW MT BIKE TEAM 2001 02:47:22.34 17,92 02:46:58.04
55 BERTOLINI CLAUDIO M M5 4 CICLO TEAM SAN GINESE 02:47:23.18 17,92 02:45:47.47
56 GUERRIERI ALESSIO M M2 8 ASD MTB CLUB CECINA 02:47:30.65 17,91 02:46:27.55
57 MONTELLA ENRICO M M5 5 ASD STAR BIKE 02:47:40.51 17,89 02:46:39.39
58 SANZANNI ANDREA M M2 9 TEAM SPACEBIKES 02:48:43.82 17,78 02:48:02.02
59 TIGLI LUCA M M3 10 CICLI TADDEI 02:48:44.02 17,78 02:48:29.29
60 BROGI DAVIDE M M5 6 ASD CICLISSIMO BIKE TEAM 02:48:44.77 17,78 02:48:09.09
61 GIACCHERINI PAOLO M M5 7 STEELSBIKES 02:49:01.93 17,75 02:48:31.33
62 SENSERINI GIUSEPPE M M7 1 AVIS PRATOVECCHIO-ERREPI-LEE COUGAN 02:49:02.02 17,75 02:48:48.48
63 GENNAI ALESSIO M M4 11 TEAM BIKE PIONIERI 02:49:12.18 17,73 02:48:52.08
64 ZANARDI ALDO M M5 8 ASD TORPADO-SÜDTIROL INTERNATIONAL MTB PRO TEAM 02:49:29.93 17,70 02:49:23.43
65 SIMONCINI DANIELE M M3 11 CYKELN TEAM ASD 02:49:52.67 17,66 02:49:13.07
66 BALDUCCI BEATRICE F W1 1 TEAM SPACEBIKES 02:49:52.69 17,66 02:49:33.59
67 BIAGI GIANMARCO M ELMT 6 MONKEY RACING TEAM 02:49:53.27 17,66 02:48:46.46
68 ADDANTE MICHELE M M1 14 ASD CICLISSIMO BIKE TEAM 02:49:53.67 17,66 02:48:25.25
69 SPINELLI ALESSIO M M1 15 ASD CICLISSIMO BIKE TEAM 02:49:53.67 17,66 02:48:49.27
70 CHERUBINI FRANCESCO M ELMT 7 MTB RACE SUBBIANO 02:50:20.60 17,61 02:49:26.00
71 LAERA PAOLO M M6 3 CICLISMO TERONTOLA 02:51:10.28 17,53 02:50:42.42
72 GOLINI FRANCESCO M M1 16 TEAM BIKE PIONIERI 02:51:34.42 17,49 02:50:39.22
73 TUOSTO JONATHAN M M1 17 CICLI TADDEI 02:51:46.79 17,47 02:50:59.69
74 FABBRI ALESSIO M M3 12 ZEROZERO TEAM-CICLI PUCCIARELLI 02:52:28.56 17,39 02:52:20.26
75 PARENTI LORENZO M M5 9 GS POCCIANTI 02:55:12.83 17,12 02:54:12.23
76 OCCHIOLINI IVAN M M4 12 AVIS PRATOVECCHIO-ERREPI-LEE COUGAN 02:55:45.02 17,07 02:55:05.05
77 TARANTINO CRISTIAN M M2 10 TEAM NENCINI PRATO 02:55:57.85 17,05 02:54:54.55
78 ALFANO ANTONIO M ELMT 8 ASD CICLISSIMO BIKE TEAM 02:56:09.68 17,03 02:55:21.28
79 MAZZI GIORGIO M M6 4 TEAM BIKE PIONIERI 02:56:17.32 17,02 02:55:39.22
80 FAZZUOLI ROBERTO M M6 5 MTB RACE SUBBIANO 02:56:53.67 16,96 02:55:57.57
81 CIACCI ROBERTO M M5 10 DONKEY BIKE CLUB SINALUNGA 02:57:10.92 16,93 02:56:22.32
82 PAGGETTI SILVIO M M1 18 AVIS PRATOVECCHIO-ERREPI-LEE COUGAN 02:57:20.92 16,92 02:56:08.82
83 MANDORLINI MARCO M M1 19 CICLI TADDEI 02:57:23.42 16,91 02:56:44.44
84 GROTTOLI LETIZIA F W2 1 TEAM TODESCO 02:57:35.43 16,89 02:57:14.14
85 PACCIARINI MANUEL M M1 20 CAVALLINO - SPECIALIZED 02:58:21.84 16,82 02:58:01.01
86 OCCHINI DANIELE M M1 21 TEAM SCOTT PASQUINI STELLA AZZURRA 02:58:28.54 16,81 02:57:50.50
87 SCARPELLI STEFANO M M4 13 ASD CICLISSIMO BIKE TEAM 02:58:56.12 16,77 02:57:47.47
88 BIAGI ANDREA M M3 13 ASD CICLISSIMO BIKE TEAM 02:59:37.27 16,70 02:58:54.17
89 MESSERI ENRICO M M6 6 PROBIKE FIRENZE ASD 03:00:19.67 16,64 02:59:18.57
90 GIARDIELLO GIUSEPPE M M1 22 TEAM SPACEBIKES 03:00:33.66 16,62 02:59:38.26
91 FERRETTI ALBERTO M M2 11 IL MAIALETTO ASD 03:00:47.66 16,59 02:59:33.56
92 ROSADONI DAMIANO M M3 14 AVIS VERAG PRATO EST 03:01:49.43 16,50 03:01:32.32
93 NESCI EMANUELE M M5 11 IL FABBRINO ASD 03:03:21.43 16,36 03:02:37.37
94 TREMORI DUCCIO M M5 12 TEAM BIKE PIONIERI 03:03:22.17 16,36 03:02:40.40
95 CRESTI FABIO M M6 7 TEAM BIKE PIONIERI 03:03:58.69 16,31 03:03:09.29
96 MANTELLI DAVID M M2 12 BIKELAND TEAM BIKE 2003 03:04:11.27 16,29 03:03:17.17
97 FANFANI MAURIZIO M M6 8 ZEROZERO TEAM-CICLI PUCCIARELLI 03:04:36.41 16,25 03:03:10.10
98 LUCARINI ALESSANDRO M M1 23 IL FABBRINO ASD 03:05:27.32 16,18 03:05:27.32
99 SPAGGIARI SIMONE M M3 15 TEAM BP MOTION ASD 03:06:21.76 16,10 03:05:31.36
100 MANNONI MANUELE M M4 14 CICLI TADDEI 03:06:43.01 16,07 03:06:29.29
101 CHIARAMONTI SIMONE M M4 15 SC GASTONE NENCINI 03:07:18.66 16,02 03:05:51.06
102 LORENZINI ALESSANDRO M M6 9 TEAM BIKE PIONIERI 03:07:49.17 15,97 03:07:12.12
103 VANNI RICCARDO M M5 13 TEAM BIKE PIONIERI 03:07:49.51 15,97 03:06:56.56
104 DE MASI MASSIMO M M3 16 TEAM SCOTT PASQUINI STELLA AZZURRA 03:08:14.18 15,94 03:07:36.36
105 MIGLIORINI MARIO M M5 14 NEW BIKE 2008 RACING TEAM 03:09:12.63 15,86 03:08:13.13
106 ROBELLINI LUCA M M3 17 ASD IRIBELLI BY CICLI MANCINI 03:09:14.17 15,85 03:07:51.51
107 SISTI GUIDO M M6 10 MTB RACE SUBBIANO 03:09:44.52 15,81 03:08:58.52
108 FINOTTI GIULIANO M M5 15 TEAM SPACEBIKES 03:09:50.93 15,80 03:09:21.13
109 GONFIANTINI FEDERICO M M4 16 CYKELN TEAM ASD 03:10:50.92 15,72 03:09:31.22
110 LORENZINI TOMMASO M M3 18 TEAM SPACEBIKES 03:11:30.00 15,67 03:10:40.40
111 MAZZONI FABRIZIO M M2 13 AVIS VERAG PRATO EST 03:11:30.67 15,67 03:11:00.57
112 GIANNINI FABRIZIO M M4 17 MTB RACE SUBBIANO 03:11:41.67 15,65 03:10:57.67
113 MAFFI ALESSANDRO M M5 16 CICLI TADDEI 03:13:07.27 15,53 03:11:30.30
114 MISTRETTA BEATRICE F W2 2 NEW BIKE 2008 RACING TEAM 03:13:20.01 15,52 03:13:04.04
115 PERTICAI GINO M M7 2 TEAM SCOTT PASQUINI STELLA AZZURRA 03:13:34.93 15,50 03:12:51.83
116 FRANCHINI ANTONIO M M2 14 CYKELN TEAM ASD 03:13:42.67 15,49 03:13:01.57
117 ARGINI FABRIZIO M M5 17 FRM FACTORY RACING TEAM ASD 03:14:19.06 15,44 03:13:22.22
118 MORI CLAUDIO M M7 3 TEAM BIKE PIONIERI 03:14:22.66 15,43 03:13:38.26
119 MENCI MATTEO M M1 24 AVIS VERAG PRATO EST 03:14:44.18 15,41 03:14:26.08
120 ANTONIOLI LUCA M M2 15 POLISPORTIVA SANGIULIANESE 03:15:45.25 15,33 03:14:54.54
121 MANDELLI CHIARA F W2 3 TEAM SPACEBIKES 03:16:34.92 15,26 03:16:12.32
122 BERTOLI EMILIANO M M3 19 ASD MTB CLUB CECINA 03:16:42.00 15,25 03:15:34.34
123 NALDI FRANCO M M7 4 POLISPORTIVA VALLERBIKE AVIS MONTAIONE 03:17:01.10 15,23 03:16:15.15
124 AMADORI VALERIA F W2 4 CICLI TADDEI 03:17:04.14 15,22 03:16:51.51
125 CAPOSCIUTTI SAMUELE M M2 16 MTB VALDICHIANA 03:17:55.65 15,16 03:16:30.05
126 GIANNINI LUCA M M3 20 TEAM BP MOTION ASD 03:19:16.97 15,06 03:18:11.87
127 PERUZZI MASSIMO M M5 18 ZEROZERO TEAM-CICLI PUCCIARELLI 03:19:25.66 15,04 03:17:58.06
128 SANTOS DA SILVA ANDRE´ M M1 25 TEAM GIULIANI CICLI ARCO 03:19:39.28 15,03 03:18:41.41
129 CORRAO PIETRO M M5 19 NEW MT BIKE TEAM 2001 03:20:27.67 14,97 03:19:10.27
130 PALAZZI LUCA M M3 21 ASD LR BIKE TEAM 03:21:35.89 14,88 03:20:40.89
131 GIANDONATI LUCA M M5 20 AVIS VERAG PRATO EST 03:23:23.17 14,75 03:22:57.57
132 MASSINI LUCA M M5 21 TEAM BIKE PIONIERI 03:23:25.17 14,75 03:22:30.30
133 GIORGI ROBERTO M M6 11 ASD MTB CLUB CECINA 03:23:58.01 14,71 03:22:55.55
134 STEFANINI FABIO M M3 22 SSD FIRENZUOLA 03:24:30.21 14,67 03:23:20.20
135 DI MANNA VINCENZO M M5 22 TEAM MTB LOMAZZO 03:24:51.00 14,64 03:24:10.10
136 BOMBONATO MANUELA F W2 5 TEAM BIKE PIONIERI 03:24:58.16 14,64 03:24:36.36
137 MORETTO FEDERICO SILVIO M M1 26 AVIS VERAG PRATO EST 03:25:24.74 14,61 03:24:55.55
138 MARTINELLI STEFANO M M5 23 TEAM SPACEBIKES 03:25:26.52 14,60 03:24:36.42
139 LA MAZZA ANGELO M M5 24 ASD ZHIRAF 03:25:31.42 14,60 03:24:31.31
140 PINESSI MARCO M M6 12 LISSONE MTB ASD 03:25:49.00 14,58 03:24:58.58
141 ILARDO GIOVANNI M M6 13 SC GASTONE NENCINI 03:25:54.17 14,57 03:24:18.07
142 CARATELLA EMILIANO M M4 18 PROBIKE FIRENZE ASD 03:26:22.42 14,54 03:25:18.18
143 LONDI RUDY M M3 23 ASD CREATIVE PLANET 03:26:24.41 14,53 03:24:50.31
144 PEDANI GIUSEPPE LUCA M M7 5 CICLI TADDEI 03:26:34.63 14,52 03:25:44.53
145 LAMA MAURIZIO M M5 25 SPECIALISSIMA BIKE TEAM 03:26:36.86 14,52 03:25:08.26
146 PISTOLESI FEDERICO M ELMT 9 SVALVOLATI IN MTB 03:26:44.91 14,51 03:25:08.81
147 SABATINO ROBERTO M M1 27 NEW BIKE 2008 RACING TEAM 03:26:59.37 14,49 03:25:42.42
148 BASAGNI SILVIO M M5 26 MTB CASENTINO ASD 03:27:33.85 14,45 03:26:25.05
149 TETTAMANZI EMILIO M M7 6 TEAM SPACEBIKES 03:28:05.28 14,42 03:27:50.50
150 CATASSI CATERINA F W1 2 CICLI TADDEI 03:28:11.66 14,41 03:26:55.56
151 MELIS BENITO M M5 27 TEAM SPACEBIKES 03:28:21.01 14,40 03:27:34.34
152 VANNUCCINI STEFANO M M5 28 ASD LR BIKE TEAM 03:28:28.40 14,39 03:27:09.30
153 FERRI ALBERTO M M5 29 MTB CASENTINO ASD 03:28:33.07 14,39 03:27:26.26
154 GOSETTO ROBERTO M M5 30 IL FABBRINO ASD 03:28:55.78 14,36 03:28:11.68
155 MONTAGLIANI AURELIO M M4 19 SSD FIRENZUOLA 03:28:59.25 14,36 03:27:35.35
156 PALADINI SIMONE M M5 31 ASD ZHIRAF 03:29:03.16 14,35 03:27:49.06
157 DE SANTIS DANILO M M4 20 GS PRIMO E PIZZA BIKE 03:29:04.91 14,35 03:27:37.81
158 BARTOLINI DANIELE M M5 32 ASD FREE BIKE CASALGUIDI 03:29:05.52 14,35 03:28:29.29
159 CHELLINI GIORDANO M M5 33 TUTTO BIKE TEAM KONA 03:29:06.00 14,35 03:28:22.00
160 LORENZINI LUCA M M2 17 TEAM GIOVANNELLI 03:29:28.99 14,32 03:28:44.89
161 CIPRIANI FABIO M M4 21 AVIS VERAG PRATO EST 03:29:34.31 14,32 03:29:09.21
162 CARDELLI FILIBERTO M M5 34 ASD MTB CLUB CECINA 03:29:45.42 14,30 03:28:53.32
163 BROGI ALESSANDRO M M5 35 TUTTO BIKE TEAM KONA 03:29:57.75 14,29 03:29:06.35
164 ANTONINI FABIO M M2 18 TUTTO BIKE TEAM KONA 03:29:57.84 14,29 03:29:26.14
165 NERINI MILO M M5 36 SC GASTONE NENCINI 03:30:31.91 14,25 03:28:51.81
166 CIPRIANI MAURIZIO M M5 37 MTB CASENTINO ASD 03:30:34.55 14,25 03:29:30.30
167 ROSI FABRIZIO M M5 38 CICLI TADDEI 03:30:37.76 14,24 03:30:05.56
168 BIGALLI SIMONE M M5 39 ZEROZERO TEAM-CICLI PUCCIARELLI 03:30:58.41 14,22 03:29:45.45
169 PROPENSO DENIS M M3 24 CYKELN TEAM ASD 03:31:49.72 14,16 03:30:26.32
170 CORTESI FRANCESCO M ELMT 10 MTB RACE SUBBIANO 03:32:09.88 14,14 03:31:06.06
171 GRISOLINI SIMONE M M2 19 TEAM TREDICI BIKE 03:32:44.14 14,10 03:31:22.04
172 MARCECA RICCARDO M M2 20 ASD CICLISSIMO BIKE TEAM 03:33:53.41 14,03 03:33:07.07
173 LAPINI TOMMASO M M2 21 ASD BY BIKE 03:34:10.12 14,01 03:33:33.33
174 MENCARELLI MASSIMO M M4 22 ASD LR BIKE TEAM 03:34:15.16 14,00 03:32:59.59
175 FERRUZZI MASSIMO M M4 23 TUTTO BIKE TEAM KONA 03:34:38.92 13,98 03:34:07.22
176 GUERRIERI MORENO M M7 7 ASD MTB CLUB CECINA 03:35:04.66 13,95 03:34:01.56
177 BERGAMASCHI TOMMASO M JUN 6 AVIS PRATOVECCHIO-ERREPI-LEE COUGAN 03:35:09.14 13,94 03:34:49.49
178 BOLLINI NICOLA M M2 22 BIKELAND TEAM BIKE 2003 03:35:26.38 13,93 03:34:33.33
179 GAMBACORTI MASSIMO M M7 8 AVIS VERAG PRATO EST 03:36:25.39 13,86 03:35:58.58
180 ZERINI FILIPPO M M5 40 GS POCCIANTI 03:36:47.42 13,84 03:35:09.32
181 OLIVIERI FEDERICO M ELMT 11 AVIS VERAG PRATO EST 03:37:24.81 13,80 03:36:51.41
182 CORTESI GIACOMO M M2 23 MTB RACE SUBBIANO 03:37:45.09 13,78 03:36:53.53
183 AMATO LUCIANO M M3 25 TEAM BIKE LARCIANO ASD 03:38:27.27 13,73 03:37:59.27
184 BANELLI FABIO M M4 24 MTB RACE SUBBIANO 03:38:27.90 13,73 03:37:36.80
185 BALDONI ALEX M M2 24 CAVALLINO - SPECIALIZED 03:39:07.41 13,69 03:37:53.01
186 GUACHE ENRICO DE GUZMAN M M1 28 STEELSBIKES 03:40:13.42 13,62 03:39:35.35
187 SPINICCI EMILIO M M3 26 ASD FREE BIKE CASALGUIDI 03:41:00.67 13,57 03:39:29.57
188 MILANATO VALERIO M M5 41 TEAM MTB LOMAZZO 03:41:13.91 13,56 03:40:31.31
189 DI NUCCI MIRKO M M4 25 ASD MTB CLUB CECINA 03:41:23.41 13,55 03:40:16.16
190 CERBAI LUCIANO M M5 42 ASSOCIAZIONE FERRI TAGLIENTI 03:41:24.12 13,55 03:40:47.02
191 TAGLIAZUCCHI SIMONE M M4 26 GS PRIMO E PIZZA BIKE 03:43:39.38 13,41 03:42:13.28
192 PISCITELLI ANGELO M M3 27 GS POCCIANTI 03:43:55.39 13,40 03:42:17.17
193 BALLEGGI ALESSANDRO M M4 27 TUTTO BIKE TEAM KONA 03:45:19.77 13,31 03:44:31.31
194 CORSETTI GIANFRANCO M M7 9 AVIS PRATOVECCHIO-ERREPI-LEE COUGAN 03:45:24.25 13,31 03:44:16.15
195 ORAZIOLI PAOLO M M4 28 STEELSBIKES 03:46:29.66 13,25 03:45:53.56
196 ALESSI CRISTIANO M M3 28 GS PRIMO E PIZZA BIKE 03:46:43.40 13,23 03:45:24.00
197 RONDINA ALBERTO M M2 25 SC GASTONE NENCINI 03:47:19.83 13,20 03:45:43.43
198 SOAVE MICHELE M M4 29 AVIS VERAG PRATO EST 03:47:38.66 13,18 03:47:11.06
199 GONFIA MICHELE M M3 29 BIKELAND TEAM BIKE 2003 03:49:35.09 13,07 03:48:11.11
200 DINI DAVID M M5 43 GS PRIMO E PIZZA BIKE 03:51:42.91 12,95 03:50:21.81
201 PASTACALDI ALESSANDRO M M6 14 TUTTINBICI CALENZANO 03:53:10.06 12,87 03:51:40.40
202 GALLUZZI ANDREA M M6 15 TEAM BIKE PIONIERI 03:53:47.99 12,83 03:53:00.09
203 RINALDI ROBERTO M M7 10 CICLI BANZAI 03:54:06.16 12,82 03:52:42.42
204 BINI GIULIO M ELMT 12 ASD CICLISSIMO BIKE TEAM 03:55:22.40 12,75 03:53:58.00
205 MANZINI CHRISTIAN M M2 26 NEW BIKE 2008 RACING TEAM 03:56:11.38 12,70 03:54:31.31
206 BOTTONI FRANCESCO M M1 29 ASD MTB CLUB CECINA 04:01:29.97 12,42 04:00:39.87
207 FULCERI ALESSANDRO M M5 44 ASD MTB CLUB CECINA 04:01:31.39 12,42 04:00:23.23
208 CAMBI LORENZO M M2 27 AVIS VERAG PRATO EST 04:01:36.05 12,42 04:01:06.06
209 FALLI STEFANO M M3 30 GS VICCHIO BIKE 04:02:23.51 12,38 04:01:49.49
210 FANTONI FABIO M M4 30 MTB CASENTINO ASD 04:04:09.24 12,29 04:03:03.14
211 VANNUCCI CARLO M M6 16 AVIS BIKE PISTOIA ASD 04:04:46.09 12,26 04:03:07.07
212 BENOCCI RAFFAELE M M4 31 ASD AREZZOBICI 04:05:06.35 12,24 04:03:53.25
213 DEGLI ESPOSTI DENIS M M5 45 TEAM TREDICI BIKE 04:06:06.79 12,19 04:04:36.39
214 GIANNINI GIANPAOLO M M6 17 AVIS PRATOVECCHIO-ERREPI-LEE COUGAN 04:06:24.84 12,18 04:05:07.44
215 MAGRINI MATTEO M ELMT 13 TUTTO BIKE TEAM KONA 04:07:23.15 12,13 04:06:10.05
216 MIGLIORINI FABIO M M6 18 AVIS PRATOVECCHIO-ERREPI-LEE COUGAN 04:07:24.40 12,13 04:05:57.30
217 SERBOLI CLAUDIO M M2 28 GS MONTEMARCIANO 04:08:10.65 12,09 04:07:19.25
218 PULIGNANI STEFANO M M5 46 GS POCCIANTI 04:11:25.79 11,93 04:10:16.59
219 BARNI ALESSANDRO M M6 19 TEAM NENCINI PRATO 04:11:33.50 11,93 04:10:33.33
220 GASPAROTTI RICCARDO M CT 1 ASD TEAM BICISPORT CARRARA 04:11:55.90 11,91 04:10:26.80
221 BELLESI FRANCESCO M M4 32 NUOVA ASD TEAM CICLOIDEA 04:13:12.26 11,85 04:11:33.33
222 CALAMAI ROSSANO M M2 29 IL FABBRINO ASD 04:14:16.55 11,80 04:12:43.45
223 SIMI STEFANO M M3 31 EMP CYCLING TEAM 04:16:07.28 11,71 04:14:48.18
224 BONAIUTI GIUSEPPE M M7 11 ASD CICLISSIMO BIKE TEAM 04:16:49.06 11,68 04:15:34.34
225 ROBERTIELLO SERGIO M M4 33 GS PRIMO E PIZZA BIKE 04:19:15.90 11,57 04:17:57.50
226 MAGELLI LUCA M M6 20 AVIS VERAG PRATO EST 04:20:27.08 11,52 04:19:56.56
227 VINCI MARCO M M6 21 TUTTO BIKE TEAM KONA 04:21:57.64 11,45 04:20:21.14
228 BOANINI FRANCO M M7 12 PEDALE BIANCAZZURRO 04:22:25.97 11,43 04:20:46.57
229 VALLECORSI SIMONE M M1 30 GS PRIMO E PIZZA BIKE 04:23:13.58 11,40 04:21:48.48
230 MASINI PAOLO M M5 47 ASD MATELLIANA CAVA DE´ TIRRENI 04:39:03.30 10,75 04:37:29.29
231 BECUCCI STEFANO M M5 48 GS PRIMO E PIZZA BIKE 04:39:04.53 10,75 04:37:32.32
232 GORI SAMUELE M M4 34 TEAM BIKE LA ROKKA 04:42:18.13 10,63 04:41:07.07
233 RICCI LINO M M5 49 TEAM BIKE LA ROKKA 04:42:18.13 10,63 04:41:05.05
234 BUSILLO GUALTIERO M M4 35 ASD MUGELLO TOSCANA BIKE 04:45:47.48 10,50 04:45:05.05
235 GIOIA PATRIZIA F W2 6 ASD AVIS ROSIGNANO 04:46:01.63 10,49 04:44:28.28
236 SIMONI SAMUELE M M4 36 AVIS VERAG PRATO EST 04:46:15.26 10,48 04:45:51.51
237 VANNONI MATTEO M M2 30 TEAM LENZI BIKE ASD 04:48:49.12 10,39 04:47:09.09
238 SCOSCINI RAFFAELLA F W2 7 CAVALLINO - SPECIALIZED 04:49:55.88 10,35 04:48:36.78
239 VERRAZZANI FRANCO M M6 22 CAVALLINO - SPECIALIZED 04:49:56.13 10,35 04:48:34.34
240 BARTOLINI MARCELLO M M6 23 TEAM BP MOTION ASD 04:50:41.13 10,32 04:49:21.21
241 CIABATTI MARCELLO M M5 50 AVIS PRATOVECCHIO-ERREPI-LEE COUGAN 04:56:58.54 10,10 04:55:45.45
242 LENA GIUSEPPE M M5 51 ASD SLOWTEAM 05:16:34.80 9,48 05:14:58.58
243 GAGLIARDI ELISABETTA F W2 8 BARACCA LUGO MTB 05:22:27.61 9,30 05:21:08.08
244 DEL VICARIO MICHELE M M5 52 AVIS VERAG PRATO EST 06:01:21.10 8,30 05:59:46.46
DNF BARTOLINI SIMONE M M3 - CAPOLIVERI BIKE PARK MTB CLUB - - -
DNF RINALDI PAMELA F W2 - ASD CICLISSIMO BIKE TEAM - - -
DNF SANTONI GIANLUCA M M6 - GS POCCIANTI - - -